createdAt,value
2023-03-13T00:01:43.188Z,3.58
2023-03-13T00:04:12.342Z,3.88
2023-03-13T00:06:41.040Z,3.38
2023-03-13T00:09:17.928Z,3.20
2023-03-13T00:11:49.834Z,3.42
2023-03-13T00:14:17.068Z,3.47
2023-03-13T00:16:46.468Z,4.07
2023-03-13T00:19:14.054Z,3.72
2023-03-13T00:21:41.624Z,3.42
2023-03-13T00:26:58.329Z,3.55
2023-03-13T00:29:28.968Z,3.58
2023-03-13T00:31:59.258Z,3.33
2023-03-13T00:34:27.692Z,3.42
2023-03-13T00:36:56.172Z,3.03
2023-03-13T00:42:17.375Z,3.47
2023-03-13T00:44:48.219Z,3.80
2023-03-13T00:47:41.989Z,3.78
2023-03-13T00:50:13.423Z,3.08
2023-03-13T00:55:37.872Z,3.63
2023-03-13T00:58:05.764Z,3.67
2023-03-13T01:00:32.989Z,3.67
2023-03-13T01:03:01.639Z,3.40
2023-03-13T01:05:28.330Z,2.80
2023-03-13T01:07:58.527Z,3.45
2023-03-13T01:10:27.158Z,2.92
2023-03-13T01:12:53.895Z,3.45
2023-03-13T01:15:22.744Z,3.08
2023-03-13T01:17:52.384Z,3.28
2023-03-13T01:20:22.138Z,3.13
2023-03-13T01:22:49.482Z,3.53
2023-03-13T01:25:18.078Z,4.05
2023-03-13T01:27:44.710Z,3.42
2023-03-13T01:30:14.215Z,2.90
2023-03-13T01:32:41.095Z,2.67
2023-03-13T01:35:09.222Z,2.72
2023-03-13T01:37:39.653Z,3.00
2023-03-13T01:40:12.483Z,3.35
2023-03-13T01:42:58.787Z,3.05
2023-03-13T01:45:55.841Z,3.33
2023-03-13T01:49:04.074Z,3.40
2023-03-13T01:54:48.149Z,3.00
2023-03-13T01:57:35.949Z,2.67
2023-03-13T02:00:11.143Z,3.45
2023-03-13T02:02:44.009Z,3.13
2023-03-13T02:05:12.620Z,3.00
2023-03-13T02:07:56.652Z,2.92
2023-03-13T02:10:25.343Z,2.42
2023-03-13T02:12:52.317Z,2.83
2023-03-13T02:15:22.887Z,2.80
2023-03-13T02:17:54.666Z,2.35
2023-03-13T02:20:23.911Z,2.63
2023-03-13T02:22:56.721Z,2.30
2023-03-13T02:25:43.435Z,3.42
2023-03-13T02:28:18.919Z,2.67
2023-03-13T02:30:53.385Z,2.47
2023-03-13T02:33:22.030Z,3.28
2023-03-13T02:35:53.571Z,2.75
2023-03-13T02:41:19.690Z,2.95
2023-03-13T02:43:50.837Z,2.53
2023-03-13T02:46:21.235Z,2.63
2023-03-13T02:48:57.627Z,2.85
2023-03-13T02:51:42.647Z,2.75
2023-03-13T02:54:16.664Z,3.10
2023-03-13T02:56:47.942Z,2.53
2023-03-13T02:59:15.261Z,2.70
2023-03-13T03:01:47.528Z,3.03
2023-03-13T03:04:16.218Z,2.83
2023-03-13T03:06:43.420Z,2.70
2023-03-13T03:09:19.025Z,3.33
2023-03-13T03:11:49.639Z,2.70
2023-03-13T03:14:21.541Z,2.55
2023-03-13T03:16:49.809Z,3.13
2023-03-13T03:19:17.046Z,2.45
2023-03-13T03:21:46.814Z,2.78
2023-03-13T03:24:17.594Z,2.80
2023-03-13T03:26:44.549Z,2.33
2023-03-13T03:29:17.494Z,3.00
2023-03-13T03:31:59.340Z,3.00
2023-03-13T03:39:53.047Z,3.13
2023-03-13T03:45:07.326Z,3.08
2023-03-13T03:50:19.718Z,2.78
2023-03-13T03:58:19.715Z,3.10
2023-03-13T04:03:40.464Z,2.72
2023-03-13T04:06:10.291Z,3.25
2023-03-13T04:08:38.357Z,3.42
2023-03-13T04:11:05.076Z,2.72
2023-03-13T04:13:34.076Z,2.70
2023-03-13T04:16:04.920Z,3.28
2023-03-13T04:18:31.737Z,2.90
2023-03-13T04:21:02.757Z,2.65
2023-03-13T04:23:30.189Z,2.80
2023-03-13T04:25:57.157Z,2.63
2023-03-13T04:31:16.701Z,3.17
2023-03-13T04:33:47.588Z,2.88
2023-03-13T04:36:24.966Z,2.80
2023-03-13T04:38:59.484Z,2.63
2023-03-13T04:41:27.897Z,3.42
2023-03-13T04:43:55.388Z,2.95
2023-03-13T04:46:22.853Z,2.95
2023-03-13T04:48:49.692Z,3.60
2023-03-13T04:51:16.497Z,3.08
2023-03-13T04:53:46.851Z,3.13
2023-03-13T04:56:41.013Z,2.78
2023-03-13T04:59:15.241Z,3.03
2023-03-13T05:04:27.486Z,2.50
2023-03-13T05:07:01.443Z,2.80
2023-03-13T05:09:28.684Z,2.80
2023-03-13T05:11:58.014Z,2.42
2023-03-13T05:14:27.356Z,2.78
2023-03-13T05:19:52.998Z,2.58
2023-03-13T05:22:23.081Z,2.70
2023-03-13T05:34:47.430Z,2.70
2023-03-13T05:37:14.249Z,2.05
2023-03-13T05:39:45.813Z,2.75
2023-03-13T05:42:13.702Z,2.42
2023-03-13T05:44:45.407Z,2.83
2023-03-13T05:47:18.985Z,2.83
2023-03-13T05:49:51.260Z,2.90
2023-03-13T05:52:20.070Z,2.78
2023-03-13T05:57:39.421Z,2.47
2023-03-13T06:00:15.403Z,2.83
2023-03-13T06:02:43.484Z,3.20
2023-03-13T06:05:12.786Z,2.95
2023-03-13T06:07:55.539Z,2.70
2023-03-13T06:10:28.120Z,3.17
2023-03-13T06:13:01.441Z,2.60
2023-03-13T06:15:47.262Z,2.53
2023-03-13T06:21:03.406Z,2.50
2023-03-13T06:23:33.417Z,2.67
2023-03-13T06:28:55.113Z,2.92
2023-03-13T06:34:09.914Z,3.13
2023-03-13T06:39:29.480Z,2.95
2023-03-13T06:44:51.456Z,3.05
2023-03-13T06:50:16.594Z,2.67
2023-03-13T06:52:44.660Z,2.90
2023-03-13T06:55:16.260Z,3.03
2023-03-13T06:57:47.795Z,3.05
2023-03-13T07:00:20.336Z,2.90
2023-03-13T07:02:54.198Z,2.33
2023-03-13T07:10:53.201Z,3.20
2023-03-13T07:13:22.700Z,2.40
2023-03-13T07:15:52.760Z,2.70
2023-03-13T07:18:22.582Z,2.70
2023-03-13T07:23:39.935Z,2.33
2023-03-13T07:26:12.837Z,2.20
2023-03-13T07:31:37.548Z,2.05
2023-03-13T07:34:07.033Z,1.83
2023-03-13T07:36:35.852Z,2.25
2023-03-13T07:39:04.471Z,1.60
2023-03-13T07:41:42.943Z,1.90
2023-03-13T07:44:15.661Z,2.00
2023-03-13T07:46:47.696Z,1.70
2023-03-13T07:49:19.040Z,2.10
2023-03-13T07:51:48.591Z,4.80
2023-03-13T07:54:17.634Z,3.75
2023-03-13T07:56:45.734Z,1.70
2023-03-13T08:02:04.027Z,1.70
2023-03-13T08:04:30.831Z,1.75
2023-03-13T08:07:05.779Z,2.03
2023-03-13T08:09:34.079Z,2.35
2023-03-13T08:12:03.902Z,1.95
2023-03-13T08:14:32.394Z,1.80
2023-03-13T08:17:00.958Z,1.98
2023-03-13T08:19:30.325Z,2.25
2023-03-13T08:21:58.697Z,2.13
2023-03-13T08:24:27.745Z,2.70
2023-03-13T08:32:45.466Z,2.90
2023-03-13T08:35:22.625Z,2.85
2023-03-13T08:37:53.342Z,2.65
2023-03-13T08:40:20.738Z,2.80
2023-03-13T08:42:49.940Z,3.10
2023-03-13T08:45:20.809Z,2.80
2023-03-13T08:47:57.679Z,2.80
2023-03-13T08:50:24.663Z,3.20
2023-03-13T08:52:54.093Z,2.70
2023-03-13T08:55:26.490Z,3.30
2023-03-13T08:58:01.315Z,3.10
2023-03-13T09:00:30.279Z,3.22
2023-03-13T09:03:01.670Z,2.75
2023-03-13T09:05:56.088Z,2.80
2023-03-13T09:08:26.043Z,3.20
2023-03-13T09:10:58.275Z,2.92
2023-03-13T09:13:32.671Z,2.95
2023-03-13T09:16:14.956Z,2.92
2023-03-13T09:18:45.314Z,2.88
2023-03-13T09:21:23.950Z,3.30
2023-03-13T09:23:53.451Z,2.58
2023-03-13T09:26:23.456Z,2.90
2023-03-13T09:28:54.625Z,2.97
2023-03-13T09:31:30.288Z,2.70
2023-03-13T09:33:59.768Z,3.00
2023-03-13T09:36:29.508Z,3.85
2023-03-13T09:39:02.352Z,2.47
2023-03-13T09:41:34.520Z,2.75
2023-03-13T09:47:41.503Z,3.00
2023-03-13T09:50:25.179Z,2.58
2023-03-13T09:53:07.088Z,2.67
2023-03-13T09:55:41.874Z,3.00
2023-03-13T09:58:22.178Z,2.88
2023-03-13T10:00:55.217Z,2.58
2023-03-13T10:03:30.655Z,2.80
2023-03-13T10:06:04.476Z,3.05
2023-03-13T10:08:33.671Z,3.13
2023-03-13T10:11:05.859Z,3.47
2023-03-13T10:13:54.891Z,2.80
2023-03-13T10:16:29.373Z,3.20
2023-03-13T10:18:59.403Z,3.15
2023-03-13T10:21:36.120Z,3.50
2023-03-13T10:24:05.580Z,3.63
2023-03-13T10:29:35.246Z,3.45
2023-03-13T10:32:20.713Z,3.80
2023-03-13T10:35:03.959Z,3.67
2023-03-13T10:38:13.750Z,4.07
2023-03-13T10:40:44.294Z,4.10
2023-03-13T10:46:05.581Z,3.70
2023-03-13T10:48:48.582Z,3.60
2023-03-13T10:51:39.845Z,3.30
2023-03-13T10:54:38.977Z,3.47
2023-03-13T10:57:22.066Z,2.78
2023-03-13T11:11:33.781Z,2.90
2023-03-13T11:14:14.804Z,3.08
2023-03-13T11:16:50.041Z,3.17
2023-03-13T11:19:47.149Z,3.40
2023-03-13T11:22:13.847Z,3.30
2023-03-13T11:24:49.748Z,3.35
2023-03-13T11:27:22.245Z,3.22
2023-03-13T11:30:23.616Z,4.00
2023-03-13T11:33:02.783Z,3.25
2023-03-13T11:36:01.818Z,2.78
2023-03-13T11:38:39.439Z,2.45
2023-03-13T11:45:16.748Z,2.50
2023-03-13T11:48:12.296Z,2.50
2023-03-13T11:51:04.929Z,2.50
2023-03-13T11:57:02.441Z,2.92
2023-03-13T12:00:03.519Z,2.30
2023-03-13T12:02:59.443Z,2.30
2023-03-13T12:05:30.791Z,2.78
2023-03-13T12:08:27.152Z,2.50
2023-03-13T12:11:29.284Z,2.30
2023-03-13T12:14:12.814Z,2.33
2023-03-13T12:16:48.483Z,2.30
2023-03-13T12:19:29.258Z,2.00
2023-03-13T12:22:07.421Z,2.50
2023-03-13T12:24:44.397Z,2.08
2023-03-13T12:27:20.466Z,2.20
2023-03-13T12:30:04.048Z,2.80
2023-03-13T12:32:44.068Z,2.90
2023-03-13T12:38:31.753Z,2.25
2023-03-13T12:44:21.696Z,2.10
2023-03-13T12:46:58.374Z,2.22
2023-03-13T12:49:37.433Z,2.33
2023-03-13T12:52:49.462Z,2.78
2023-03-13T12:55:42.590Z,3.03
2023-03-13T12:58:27.553Z,3.08
2023-03-13T13:03:59.838Z,3.25
2023-03-13T13:06:50.866Z,2.72
2023-03-13T13:09:47.673Z,2.80
2023-03-13T13:12:28.828Z,3.20
2023-03-13T13:15:03.506Z,3.03
2023-03-13T13:23:37.097Z,3.60
2023-03-13T13:26:34.703Z,3.05
2023-03-13T13:35:12.518Z,3.83
2023-03-13T13:37:43.863Z,3.28
2023-03-13T13:40:21.505Z,4.18
2023-03-13T13:43:06.694Z,3.42
2023-03-13T13:51:26.777Z,3.33
2023-03-13T13:54:26.960Z,3.25
2023-03-13T14:00:23.806Z,3.97
2023-03-13T14:02:56.135Z,4.35
2023-03-13T14:05:24.779Z,3.40
2023-03-13T14:08:21.996Z,3.55
2023-03-13T14:11:09.022Z,4.18
2023-03-13T14:14:07.594Z,3.42
2023-03-13T14:19:37.845Z,3.17
2023-03-13T14:22:11.026Z,3.78
2023-03-13T14:24:41.247Z,3.90
2023-03-13T14:27:23.776Z,4.28
2023-03-13T14:38:38.800Z,4.68
2023-03-13T14:41:08.674Z,4.82
2023-03-13T14:43:47.481Z,4.60
2023-03-13T14:48:56.499Z,4.78
2023-03-13T14:51:30.902Z,4.65
2023-03-13T14:54:10.821Z,4.72
2023-03-13T14:56:47.997Z,5.30
2023-03-13T14:59:23.755Z,4.47
2023-03-13T15:02:10.171Z,4.40
2023-03-13T15:05:13.765Z,4.35
2023-03-13T15:07:53.922Z,5.20
2023-03-13T15:13:22.859Z,4.32
2023-03-13T15:18:35.480Z,3.40
2023-03-13T15:24:16.531Z,2.90
2023-03-13T15:26:43.170Z,2.85
2023-03-13T15:29:13.171Z,2.20
2023-03-13T15:31:41.732Z,2.00
2023-03-13T15:34:14.041Z,2.10
2023-03-13T15:36:43.924Z,2.55
2023-03-13T15:39:19.530Z,1.85
2023-03-13T15:41:49.546Z,1.35
2023-03-13T15:44:16.179Z,1.20
2023-03-13T15:46:43.488Z,2.03
2023-03-13T15:49:13.228Z,1.50
2023-03-13T15:51:39.957Z,1.70
2023-03-13T15:54:08.746Z,1.55
2023-03-13T15:56:40.382Z,1.80
2023-03-13T15:59:16.454Z,1.67
2023-03-13T16:01:48.230Z,1.83
2023-03-13T16:04:26.099Z,2.00
2023-03-13T16:06:53.760Z,1.60
2023-03-13T16:09:23.533Z,1.65
2023-03-13T16:11:52.746Z,1.73
2023-03-13T16:14:22.330Z,2.10
2023-03-13T16:16:50.194Z,1.80
2023-03-13T16:19:24.929Z,1.77
2023-03-13T16:22:01.809Z,1.80
2023-03-13T16:24:38.381Z,1.67
2023-03-13T16:27:19.039Z,1.70
2023-03-13T16:29:47.228Z,1.55
2023-03-13T16:32:29.577Z,1.70
2023-03-13T16:35:00.550Z,2.05
2023-03-13T16:37:27.243Z,2.00
2023-03-13T16:39:54.861Z,2.22
2023-03-13T16:45:01.994Z,2.25
2023-03-13T16:47:29.686Z,1.80
2023-03-13T16:49:56.820Z,2.33
2023-03-13T16:52:23.490Z,2.10
2023-03-13T16:54:51.190Z,2.50
2023-03-13T16:57:25.742Z,2.45
2023-03-13T16:59:59.855Z,1.88
2023-03-13T17:02:28.816Z,2.40
2023-03-13T17:04:55.740Z,2.13
2023-03-13T17:10:33.813Z,2.33
2023-03-13T17:13:04.113Z,2.40
2023-03-13T17:18:03.672Z,2.92
2023-03-13T17:29:19.794Z,5.00
2023-03-13T17:31:46.465Z,3.85
2023-03-13T17:34:13.608Z,3.72
2023-03-13T17:36:43.673Z,3.38
2023-03-13T17:39:13.478Z,3.40
2023-03-13T17:41:41.189Z,3.42
2023-03-13T17:44:09.273Z,3.38
2023-03-13T17:49:39.000Z,2.97
2023-03-13T17:52:09.753Z,2.90
2023-03-13T17:57:30.164Z,2.97
2023-03-13T17:59:57.236Z,3.92
2023-03-13T18:02:28.042Z,3.58
2023-03-13T18:04:56.090Z,3.72
2023-03-13T18:07:28.477Z,4.88
2023-03-13T18:09:56.678Z,4.53
2023-03-13T18:12:33.202Z,4.28
2023-03-13T18:15:04.895Z,4.03
2023-03-13T18:17:33.898Z,3.70
2023-03-13T18:20:03.454Z,3.20
2023-03-13T18:22:31.265Z,3.38
2023-03-13T18:24:58.601Z,3.17
2023-03-13T18:27:26.495Z,3.72
2023-03-13T18:29:54.526Z,3.30
2023-03-13T18:35:03.678Z,4.38
2023-03-13T18:37:55.188Z,3.97
2023-03-13T18:40:28.623Z,3.55
2023-03-13T18:43:02.678Z,3.97
2023-03-13T18:45:29.500Z,4.30
2023-03-13T18:50:42.445Z,4.93
2023-03-13T18:53:09.466Z,4.82
2023-03-13T18:55:38.487Z,4.38
2023-03-13T18:58:08.563Z,3.92
2023-03-13T19:09:43.113Z,4.45
2023-03-13T19:12:36.212Z,4.70
2023-03-13T19:21:00.602Z,4.80
2023-03-13T19:23:35.865Z,4.93
2023-03-13T19:29:24.208Z,4.60
2023-03-13T19:37:38.597Z,4.50
2023-03-13T19:49:20.939Z,2.50
2023-03-13T19:51:50.744Z,2.75
2023-03-13T19:57:05.877Z,2.42
2023-03-13T20:05:43.716Z,2.03
2023-03-13T20:14:15.219Z,1.60
2023-03-13T20:19:39.027Z,1.40
2023-03-13T20:52:48.196Z,1.27
2023-03-13T21:01:45.770Z,1.85
2023-03-13T21:05:05.958Z,2.20
2023-03-13T21:07:34.092Z,1.70
2023-03-13T21:10:08.756Z,1.88
2023-03-13T21:12:44.260Z,2.08
2023-03-13T21:15:28.689Z,1.40
2023-03-13T21:20:43.489Z,1.30
2023-03-13T21:23:37.385Z,1.27
2023-03-13T21:30:33.213Z,1.05
2023-03-13T21:36:28.959Z,1.80
2023-03-13T21:51:32.743Z,1.38
2023-03-13T22:00:33.572Z,1.23
2023-03-13T22:03:24.561Z,1.52
2023-03-13T22:05:52.399Z,1.50
2023-03-13T22:11:34.182Z,1.20
2023-03-13T22:19:29.809Z,1.10
2023-03-13T22:21:56.812Z,1.13
2023-03-13T22:24:23.297Z,0.90
2023-03-13T22:26:54.770Z,1.30
2023-03-13T22:29:23.198Z,1.17
2023-03-13T22:31:53.394Z,1.10
2023-03-13T22:34:26.661Z,1.23
2023-03-13T22:42:02.293Z,1.67
2023-03-13T22:44:33.129Z,1.25
2023-03-13T22:47:18.220Z,1.83
2023-03-13T22:49:45.101Z,1.30
2023-03-13T22:52:11.650Z,1.15
2023-03-13T22:54:41.235Z,1.35
2023-03-13T22:57:09.272Z,1.60
2023-03-13T22:59:44.929Z,2.05
2023-03-13T23:02:27.726Z,1.70
2023-03-13T23:05:00.527Z,1.45
2023-03-13T23:07:31.415Z,1.42
2023-03-13T23:10:02.656Z,1.50
2023-03-13T23:12:31.111Z,1.58
2023-03-13T23:14:59.652Z,1.50
2023-03-13T23:17:26.960Z,1.60
2023-03-13T23:19:53.812Z,2.00
2023-03-13T23:22:21.952Z,1.60
2023-03-13T23:24:50.212Z,1.98
2023-03-13T23:27:17.069Z,2.10
2023-03-13T23:29:46.895Z,1.77
2023-03-13T23:34:55.212Z,1.92
2023-03-13T23:37:22.707Z,2.00
2023-03-13T23:39:49.447Z,2.20
2023-03-13T23:42:18.531Z,2.20
2023-03-13T23:44:47.526Z,2.28
2023-03-13T23:47:14.918Z,2.08
2023-03-13T23:49:41.454Z,2.15
2023-03-13T23:52:14.715Z,2.47
2023-03-13T23:54:41.779Z,2.42
2023-03-13T23:57:09.427Z,2.20
2023-03-13T23:59:36.787Z,2.40
